createdAt,value
2018-11-28T00:00:59.753Z,854.13
2018-11-28T00:01:59.757Z,854.15
2018-11-28T00:02:59.737Z,854.17
2018-11-28T00:03:59.727Z,854.09
2018-11-28T00:04:59.753Z,854.10
2018-11-28T00:05:59.695Z,854.10
2018-11-28T00:06:59.708Z,854.10
2018-11-28T00:07:59.717Z,854.12
2018-11-28T00:08:59.677Z,854.13
2018-11-28T00:09:59.661Z,854.12
2018-11-28T00:10:59.668Z,854.12
2018-11-28T00:11:59.639Z,854.08
2018-11-28T00:12:59.671Z,854.08
2018-11-28T00:13:59.624Z,854.05
2018-11-28T00:14:59.608Z,854.02
2018-11-28T00:15:59.603Z,854.04
2018-11-28T00:16:59.584Z,854.10
2018-11-28T00:17:59.624Z,854.11
2018-11-28T00:18:59.566Z,854.07
2018-11-28T00:19:59.572Z,854.10
2018-11-28T00:20:59.549Z,854.07
2018-11-28T00:21:59.536Z,854.13
2018-11-28T00:22:59.566Z,854.05
2018-11-28T00:23:59.520Z,854.11
2018-11-28T00:24:59.502Z,854.11
2018-11-28T00:25:59.509Z,854.13
2018-11-28T00:26:59.485Z,854.15
2018-11-28T00:27:59.507Z,854.11
2018-11-28T00:28:59.502Z,854.12
2018-11-28T00:29:59.448Z,854.15
2018-11-28T00:30:59.436Z,854.14
2018-11-28T00:31:59.454Z,854.11
2018-11-28T00:32:59.418Z,854.14
2018-11-28T00:33:59.444Z,854.23
2018-11-28T00:34:59.422Z,854.19
2018-11-28T00:35:59.386Z,854.27
2018-11-28T00:36:59.369Z,854.27
2018-11-28T00:37:59.388Z,854.35
2018-11-28T00:38:59.396Z,854.31
2018-11-28T00:39:59.351Z,854.29
2018-11-28T00:40:59.336Z,854.33
2018-11-28T00:41:59.325Z,854.32
2018-11-28T00:42:59.356Z,854.33
2018-11-28T00:43:59.311Z,854.36
2018-11-28T00:44:59.313Z,854.37
2018-11-28T00:45:59.284Z,854.34
2018-11-28T00:46:59.268Z,854.42
2018-11-28T00:47:59.299Z,854.39
2018-11-28T00:48:59.272Z,854.44
2018-11-28T00:49:59.250Z,854.40
2018-11-28T00:50:59.239Z,854.47
2018-11-28T00:51:59.216Z,854.47
2018-11-28T00:52:59.241Z,854.43
2018-11-28T00:53:59.213Z,854.46
2018-11-28T00:54:59.188Z,854.46
2018-11-28T00:55:59.178Z,854.49
2018-11-28T00:56:59.221Z,854.50
2018-11-28T00:57:59.156Z,854.53
2018-11-28T00:58:59.144Z,854.50
2018-11-28T00:59:59.135Z,854.54
2018-11-28T01:00:59.123Z,854.50
2018-11-28T01:01:59.159Z,854.58
2018-11-28T01:02:59.113Z,854.58
2018-11-28T01:03:59.092Z,854.66
2018-11-28T01:04:59.086Z,854.64
2018-11-28T01:05:59.078Z,854.69
2018-11-28T01:06:59.097Z,854.64
2018-11-28T01:07:59.091Z,854.66
2018-11-28T01:08:59.057Z,854.70
2018-11-28T01:09:59.038Z,854.69
2018-11-28T01:10:59.021Z,854.68
2018-11-28T01:11:59.011Z,854.66
2018-11-28T01:12:59.039Z,854.68
2018-11-28T01:13:58.991Z,854.67
2018-11-28T01:14:58.982Z,854.67
2018-11-28T01:15:58.986Z,854.65
2018-11-28T01:16:58.956Z,854.66
2018-11-28T01:17:58.990Z,854.67
2018-11-28T01:18:58.944Z,854.66
2018-11-28T01:19:58.927Z,854.69
2018-11-28T01:20:58.924Z,854.70
2018-11-28T01:21:58.913Z,854.72
2018-11-28T01:22:58.929Z,854.73
2018-11-28T01:23:58.908Z,854.77
2018-11-28T01:24:58.877Z,854.75
2018-11-28T01:25:58.860Z,854.77
2018-11-28T01:26:58.856Z,854.85
2018-11-28T01:27:58.888Z,854.78
2018-11-28T01:28:58.838Z,854.84
2018-11-28T01:29:58.831Z,854.86
2018-11-28T01:30:58.863Z,854.86
2018-11-28T01:31:58.801Z,854.87
2018-11-28T01:32:58.800Z,854.86
2018-11-28T01:33:58.783Z,854.87
2018-11-28T01:34:58.781Z,854.86
2018-11-28T01:35:58.798Z,854.83
2018-11-28T01:36:58.769Z,854.89
2018-11-28T01:37:58.750Z,854.85
2018-11-28T01:38:58.736Z,854.88
2018-11-28T01:39:58.717Z,854.86
2018-11-28T01:40:58.761Z,854.81
2018-11-28T01:41:58.700Z,854.81
2018-11-28T01:42:58.688Z,854.77
2018-11-28T01:43:58.678Z,854.80
2018-11-28T01:44:58.668Z,854.79
2018-11-28T01:45:58.695Z,854.75
2018-11-28T01:46:58.666Z,854.77
2018-11-28T01:47:58.640Z,854.83
2018-11-28T01:48:58.624Z,854.75
2018-11-28T01:49:58.621Z,854.76
2018-11-28T01:50:58.640Z,854.75
2018-11-28T01:51:58.649Z,854.79
2018-11-28T01:52:58.583Z,854.75
2018-11-28T01:53:58.587Z,854.80
2018-11-28T01:54:58.563Z,854.74
2018-11-28T01:55:58.596Z,854.73
2018-11-28T01:56:58.544Z,854.74
2018-11-28T01:57:58.530Z,854.73
2018-11-28T01:58:58.525Z,854.73
2018-11-28T01:59:58.516Z,854.68
2018-11-28T02:00:58.546Z,854.69
2018-11-28T02:01:58.497Z,854.68
2018-11-28T02:02:58.482Z,854.72
2018-11-28T02:03:58.519Z,854.66
2018-11-28T02:04:58.460Z,854.64
2018-11-28T02:05:58.467Z,854.66
2018-11-28T02:06:58.439Z,854.65
2018-11-28T02:07:58.431Z,854.66
2018-11-28T02:08:58.457Z,854.69
2018-11-28T02:09:58.412Z,854.66
2018-11-28T02:10:58.401Z,854.66
2018-11-28T02:11:58.382Z,854.67
2018-11-28T02:12:58.386Z,854.65
2018-11-28T02:13:58.412Z,854.61
2018-11-28T02:14:58.369Z,854.77
2018-11-28T02:15:58.352Z,854.67
2018-11-28T02:16:58.333Z,854.68
2018-11-28T02:17:58.326Z,854.70
2018-11-28T02:18:58.344Z,854.70
2018-11-28T02:19:58.339Z,854.69
2018-11-28T02:20:58.305Z,854.68
2018-11-28T02:21:58.326Z,854.70
2018-11-28T02:22:58.278Z,854.68
2018-11-28T02:23:58.259Z,854.72
2018-11-28T02:24:58.251Z,854.73
2018-11-28T02:25:58.248Z,854.69
2018-11-28T02:26:58.275Z,854.71
2018-11-28T02:27:58.221Z,854.68
2018-11-28T02:28:58.209Z,854.68
2018-11-28T02:29:58.196Z,854.68
2018-11-28T02:30:58.182Z,854.66
2018-11-28T02:31:58.220Z,854.69
2018-11-28T02:32:58.210Z,854.70
2018-11-28T02:33:58.162Z,854.68
2018-11-28T02:34:58.148Z,854.68
2018-11-28T02:35:58.135Z,854.65
2018-11-28T02:36:58.126Z,854.68
2018-11-28T02:37:58.148Z,854.68
2018-11-28T02:38:58.105Z,854.72
2018-11-28T02:39:58.091Z,854.69
2018-11-28T02:40:58.084Z,854.72
2018-11-28T02:41:58.073Z,854.70
2018-11-28T02:42:58.091Z,854.67
2018-11-28T02:43:58.087Z,854.71
2018-11-28T02:44:58.040Z,854.70
2018-11-28T02:45:58.027Z,854.66
2018-11-28T02:46:58.033Z,854.71
2018-11-28T02:47:58.009Z,854.70
2018-11-28T02:48:58.035Z,854.69
2018-11-28T02:49:57.993Z,854.70
2018-11-28T02:50:57.977Z,854.69
2018-11-28T02:51:57.960Z,854.69
2018-11-28T02:52:57.965Z,854.71
2018-11-28T02:53:57.998Z,854.68
2018-11-28T02:54:57.934Z,854.68
2018-11-28T02:55:57.930Z,854.69
2018-11-28T02:56:57.908Z,854.72
2018-11-28T02:57:57.899Z,854.70
2018-11-28T02:58:57.924Z,854.72
2018-11-28T02:59:57.899Z,854.70
2018-11-28T03:00:57.909Z,854.66
2018-11-28T03:01:57.872Z,854.69
2018-11-28T03:02:57.854Z,854.66
2018-11-28T03:03:57.839Z,854.64
2018-11-28T03:04:57.827Z,854.67
2018-11-28T03:05:57.866Z,854.65
2018-11-28T03:06:57.811Z,854.64
2018-11-28T03:07:57.813Z,854.59
2018-11-28T03:08:57.795Z,854.64
2018-11-28T03:09:57.775Z,854.60
2018-11-28T03:10:57.799Z,854.58
2018-11-28T03:11:57.767Z,854.58
2018-11-28T03:12:57.743Z,854.59
2018-11-28T03:13:57.736Z,854.61
2018-11-28T03:14:57.720Z,854.62
2018-11-28T03:15:57.749Z,854.55
2018-11-28T03:16:57.705Z,854.58
2018-11-28T03:17:57.734Z,854.55
2018-11-28T03:18:57.679Z,854.52
2018-11-28T03:19:57.677Z,854.52
2018-11-28T03:20:57.653Z,854.55
2018-11-28T03:21:57.645Z,854.55
2018-11-28T03:22:57.677Z,854.62
2018-11-28T03:23:57.626Z,854.57
2018-11-28T03:24:57.627Z,854.57
2018-11-28T03:25:57.604Z,854.60
2018-11-28T03:26:57.591Z,854.62
2018-11-28T03:27:57.627Z,854.63
2018-11-28T03:28:57.580Z,854.66
2018-11-28T03:29:57.562Z,854.67
2018-11-28T03:30:57.581Z,854.65
2018-11-28T03:31:57.543Z,854.69
2018-11-28T03:32:57.565Z,854.65
2018-11-28T03:33:57.522Z,854.65
2018-11-28T03:34:57.521Z,854.63
2018-11-28T03:35:57.500Z,854.64
2018-11-28T03:36:57.492Z,854.63
2018-11-28T03:37:57.541Z,854.61
2018-11-28T03:38:57.488Z,854.58
2018-11-28T03:39:57.448Z,854.62
2018-11-28T03:40:57.450Z,854.60
2018-11-28T03:41:57.435Z,854.60
2018-11-28T03:42:57.471Z,854.59
2018-11-28T03:43:57.415Z,854.60
2018-11-28T03:44:57.402Z,854.60
2018-11-28T03:46:31.253Z,854.67
2018-11-28T03:46:58.399Z,854.69
2018-11-28T03:47:57.375Z,854.64
2018-11-28T03:48:57.361Z,854.65
2018-11-28T03:49:57.347Z,854.64
2018-11-28T03:50:57.337Z,854.65
2018-11-28T03:51:57.398Z,854.65
2018-11-28T03:52:57.357Z,854.63
2018-11-28T03:53:57.338Z,854.69
2018-11-28T03:54:57.304Z,854.74
2018-11-28T03:55:57.282Z,854.76
2018-11-28T03:56:57.294Z,854.73
2018-11-28T03:57:57.312Z,854.77
2018-11-28T03:58:57.265Z,854.73
2018-11-28T03:59:57.260Z,854.79
2018-11-28T04:00:57.284Z,854.79
2018-11-28T04:01:57.228Z,854.76
2018-11-28T04:02:57.216Z,854.78
2018-11-28T04:03:57.214Z,854.79
2018-11-28T04:04:57.198Z,854.78
2018-11-28T04:05:57.234Z,854.80
2018-11-28T04:06:57.175Z,854.78
2018-11-28T04:07:57.174Z,854.77
2018-11-28T04:08:57.143Z,854.81
2018-11-28T04:09:57.136Z,854.80
2018-11-28T04:10:57.168Z,854.78
2018-11-28T04:11:57.124Z,854.77
2018-11-28T04:12:57.103Z,854.79
2018-11-28T04:13:57.098Z,854.80
2018-11-28T04:14:57.085Z,854.76
2018-11-28T04:15:57.123Z,854.78
2018-11-28T04:16:57.079Z,854.80
2018-11-28T04:17:57.072Z,854.82
2018-11-28T04:18:57.056Z,854.85
2018-11-28T04:19:57.033Z,854.88
2018-11-28T04:20:57.021Z,854.81
2018-11-28T04:21:57.082Z,854.92
2018-11-28T04:22:57.003Z,854.86
2018-11-28T04:23:56.996Z,854.95
2018-11-28T04:24:56.991Z,854.96
2018-11-28T04:25:56.999Z,854.99
2018-11-28T04:26:56.963Z,855.00
2018-11-28T04:27:56.955Z,855.04
2018-11-28T04:28:56.939Z,855.04
2018-11-28T04:29:56.929Z,855.05
2018-11-28T04:30:56.962Z,855.07
2018-11-28T04:31:56.898Z,855.09
2018-11-28T04:32:56.896Z,855.10
2018-11-28T04:33:56.894Z,855.07
2018-11-28T04:34:56.872Z,855.07
2018-11-28T04:35:56.860Z,855.04
2018-11-28T04:36:56.908Z,855.09
2018-11-28T04:37:56.843Z,855.10
2018-11-28T04:38:56.835Z,855.09
2018-11-28T04:39:56.833Z,855.14
2018-11-28T04:40:56.811Z,855.13
2018-11-28T04:41:56.837Z,855.16
2018-11-28T04:42:56.793Z,855.12
2018-11-28T04:43:56.777Z,855.15
2018-11-28T04:44:56.769Z,855.14
2018-11-28T04:45:56.768Z,855.14
2018-11-28T04:46:56.779Z,855.12
2018-11-28T04:47:56.739Z,855.12
2018-11-28T04:48:56.728Z,855.09
2018-11-28T04:49:56.714Z,855.11
2018-11-28T04:50:56.703Z,855.11
2018-11-28T04:51:56.748Z,855.08
2018-11-28T04:52:56.692Z,855.07
2018-11-28T04:53:56.697Z,855.07
2018-11-28T04:54:56.664Z,855.12
2018-11-28T04:55:56.649Z,855.06
2018-11-28T04:56:56.674Z,855.09
2018-11-28T04:57:56.669Z,855.12
2018-11-28T04:58:56.620Z,855.12
2018-11-28T04:59:56.631Z,855.13
2018-11-28T05:00:56.610Z,855.11
2018-11-28T05:01:56.588Z,855.15
2018-11-28T05:02:56.613Z,855.16
2018-11-28T05:03:56.576Z,855.17
2018-11-28T05:04:56.558Z,855.16
2018-11-28T05:05:56.569Z,855.16
2018-11-28T05:06:56.541Z,855.22
2018-11-28T05:07:56.572Z,855.19
2018-11-28T05:08:56.520Z,855.17
2018-11-28T05:09:56.548Z,855.22
2018-11-28T05:10:56.491Z,855.23
2018-11-28T05:11:56.486Z,855.20
2018-11-28T05:12:56.508Z,855.21
2018-11-28T05:13:56.473Z,855.21
2018-11-28T05:14:56.456Z,855.21
2018-11-28T05:15:56.480Z,855.22
2018-11-28T05:16:56.436Z,855.25
2018-11-28T05:17:56.467Z,855.25
2018-11-28T05:18:56.408Z,855.28
2018-11-28T05:19:56.405Z,855.28
2018-11-28T05:20:56.388Z,855.28
2018-11-28T05:21:56.387Z,855.30
2018-11-28T05:22:56.409Z,855.25
2018-11-28T05:23:56.399Z,855.30
2018-11-28T05:24:56.351Z,855.24
2018-11-28T05:25:56.348Z,855.24
2018-11-28T05:26:56.339Z,855.22
2018-11-28T05:27:56.357Z,855.28
2018-11-28T05:28:56.353Z,855.30
2018-11-28T05:29:56.292Z,855.32
2018-11-28T05:30:56.297Z,855.31
2018-11-28T05:31:56.274Z,855.30
2018-11-28T05:32:56.263Z,855.32
2018-11-28T05:33:56.303Z,855.29
2018-11-28T05:34:56.256Z,855.35
2018-11-28T05:35:56.231Z,855.34
2018-11-28T05:36:56.222Z,855.35
2018-11-28T05:37:56.204Z,855.39
2018-11-28T05:38:56.252Z,855.42
2018-11-28T05:39:56.199Z,855.41
2018-11-28T05:40:56.177Z,855.39
2018-11-28T05:41:56.165Z,855.47
2018-11-28T05:42:56.172Z,855.48
2018-11-28T05:43:56.187Z,855.50
2018-11-28T05:44:56.144Z,855.54
2018-11-28T05:45:56.139Z,855.55
2018-11-28T05:46:56.122Z,855.55
2018-11-28T05:47:56.107Z,855.53
2018-11-28T05:48:56.128Z,855.54
2018-11-28T05:49:56.091Z,855.57
2018-11-28T05:50:56.089Z,855.51
2018-11-28T05:51:56.072Z,855.57
2018-11-28T05:52:56.065Z,855.56
2018-11-28T05:53:56.057Z,855.59
2018-11-28T05:54:56.038Z,855.60
2018-11-28T05:55:56.025Z,855.61
2018-11-28T05:56:56.006Z,855.61
2018-11-28T05:57:56.001Z,855.61
2018-11-28T05:58:55.988Z,855.66
2018-11-28T05:59:56.021Z,855.63
2018-11-28T06:00:55.978Z,855.65
2018-11-28T06:01:55.984Z,855.58
2018-11-28T06:02:55.953Z,855.60
2018-11-28T06:03:55.963Z,855.57
2018-11-28T06:04:55.986Z,855.60
2018-11-28T06:05:55.928Z,855.57
2018-11-28T06:06:55.927Z,855.62
2018-11-28T06:07:55.947Z,855.56
2018-11-28T06:08:55.878Z,855.55
2018-11-28T06:09:55.875Z,855.53
2018-11-28T06:10:55.919Z,855.59
2018-11-28T06:11:55.859Z,855.61
2018-11-28T06:12:55.850Z,855.58
2018-11-28T06:13:55.834Z,855.61
2018-11-28T06:14:55.815Z,855.61
2018-11-28T06:15:55.860Z,855.60
2018-11-28T06:16:55.823Z,855.61
2018-11-28T06:17:55.794Z,855.62
2018-11-28T06:18:55.833Z,855.68
2018-11-28T06:19:55.791Z,855.62
2018-11-28T06:20:55.759Z,855.62
2018-11-28T06:21:55.742Z,855.63
2018-11-28T06:22:55.742Z,855.62
2018-11-28T06:23:55.773Z,855.62
2018-11-28T06:24:55.722Z,855.63
2018-11-28T06:25:55.716Z,855.63
2018-11-28T06:26:55.701Z,855.65
2018-11-28T06:27:55.692Z,855.58
2018-11-28T06:28:55.719Z,855.58
2018-11-28T06:29:55.671Z,855.61
2018-11-28T06:30:55.666Z,855.64
2018-11-28T06:31:55.662Z,855.64
2018-11-28T06:32:55.643Z,855.66
2018-11-28T06:33:55.679Z,855.66
2018-11-28T06:34:55.670Z,855.62
2018-11-28T06:35:55.620Z,855.67
2018-11-28T06:36:55.602Z,855.69
2018-11-28T06:37:55.585Z,855.72
2018-11-28T06:38:55.584Z,855.71
2018-11-28T06:39:55.603Z,855.69
2018-11-28T06:40:55.565Z,855.74
2018-11-28T06:41:55.565Z,855.77
2018-11-28T06:42:55.529Z,855.76
2018-11-28T06:43:55.525Z,855.83
2018-11-28T06:44:55.546Z,855.83
2018-11-28T06:45:55.507Z,855.81
2018-11-28T06:46:55.540Z,855.80
2018-11-28T06:47:55.489Z,855.78
2018-11-28T06:48:55.473Z,855.77
2018-11-28T06:49:55.472Z,855.73
2018-11-28T06:50:55.445Z,855.79
2018-11-28T06:51:55.475Z,855.78
2018-11-28T06:52:55.448Z,855.76
2018-11-28T06:53:55.426Z,855.79
2018-11-28T06:54:55.425Z,855.86
2018-11-28T06:55:55.409Z,855.85
2018-11-28T06:56:55.420Z,855.82
2018-11-28T06:57:55.427Z,855.84
2018-11-28T06:58:55.366Z,855.84
2018-11-28T06:59:55.357Z,855.85
2018-11-28T07:00:55.349Z,855.88
2018-11-28T07:01:55.340Z,855.88
2018-11-28T07:02:55.349Z,855.88
2018-11-28T07:03:55.329Z,855.88
2018-11-28T07:04:55.313Z,855.93
2018-11-28T07:05:55.293Z,855.91
2018-11-28T07:06:55.282Z,855.95
2018-11-28T07:07:55.323Z,855.92
2018-11-28T07:08:55.280Z,855.95
2018-11-28T07:09:55.263Z,855.95
2018-11-28T07:10:55.251Z,855.93
2018-11-28T07:11:55.225Z,856.00
2018-11-28T07:12:55.267Z,856.03
2018-11-28T07:13:55.226Z,856.02
2018-11-28T07:14:55.196Z,856.05
2018-11-28T07:15:55.192Z,856.08
2018-11-28T07:16:55.179Z,856.03
2018-11-28T07:17:55.215Z,856.06
2018-11-28T07:18:55.173Z,856.02
2018-11-28T07:19:55.152Z,856.05
2018-11-28T07:20:55.145Z,856.06
2018-11-28T07:21:55.176Z,856.08
2018-11-28T07:22:55.143Z,856.06
2018-11-28T07:23:55.112Z,856.08
2018-11-28T07:24:55.099Z,856.05
2018-11-28T07:25:55.143Z,856.10
2018-11-28T07:26:55.073Z,856.12
2018-11-28T07:27:55.076Z,856.13
2018-11-28T07:28:55.050Z,856.13
2018-11-28T07:29:55.043Z,856.12
2018-11-28T07:30:55.041Z,856.13
2018-11-28T07:31:55.030Z,856.11
2018-11-28T07:32:55.025Z,856.10
2018-11-28T07:33:55.017Z,856.15
2018-11-28T07:34:54.999Z,856.17
2018-11-28T07:35:54.976Z,856.17
2018-11-28T07:36:55.039Z,856.16
2018-11-28T07:37:54.963Z,856.20
2018-11-28T07:38:54.961Z,856.20
2018-11-28T07:39:55.004Z,856.19
2018-11-28T07:40:54.932Z,856.19
2018-11-28T07:41:54.954Z,856.20
2018-11-28T07:42:54.906Z,856.26
2018-11-28T07:43:54.903Z,856.22
2018-11-28T07:44:54.887Z,856.25
2018-11-28T07:45:54.869Z,856.29
2018-11-28T07:46:54.901Z,856.26
2018-11-28T07:47:54.857Z,856.28
2018-11-28T07:48:54.849Z,856.32
2018-11-28T07:49:54.844Z,856.32
2018-11-28T07:50:54.823Z,856.31
2018-11-28T07:51:54.846Z,856.33
2018-11-28T07:52:54.822Z,856.32
2018-11-28T07:53:54.832Z,856.28
2018-11-28T07:54:54.781Z,856.34
2018-11-28T07:55:54.769Z,856.33
2018-11-28T07:56:54.763Z,856.31
2018-11-28T07:57:54.762Z,856.33
2018-11-28T07:58:54.772Z,856.26
2018-11-28T07:59:54.738Z,856.23
2018-11-28T08:00:54.723Z,856.23
2018-11-28T08:01:54.704Z,856.23
2018-11-28T08:02:54.697Z,856.17
2018-11-28T08:03:54.721Z,856.14
2018-11-28T08:04:54.715Z,856.19
2018-11-28T08:05:54.671Z,856.15
2018-11-28T08:06:54.691Z,856.15
2018-11-28T08:07:54.645Z,856.18
2018-11-28T08:08:54.644Z,856.21
2018-11-28T08:09:54.660Z,856.18
2018-11-28T08:10:54.611Z,856.20
2018-11-28T08:11:54.603Z,856.23
2018-11-28T08:12:54.597Z,856.25
2018-11-28T08:13:54.596Z,856.21
2018-11-28T08:14:54.615Z,856.20
2018-11-28T08:15:54.560Z,856.13
2018-11-28T08:16:54.555Z,856.14
2018-11-28T08:17:54.539Z,856.16
2018-11-28T08:18:54.532Z,856.15
2018-11-28T08:19:54.561Z,856.17
2018-11-28T08:20:54.531Z,856.12
2018-11-28T08:21:54.508Z,856.09
2018-11-28T08:22:54.491Z,856.12
2018-11-28T08:23:54.488Z,856.09
2018-11-28T08:24:54.520Z,856.10
2018-11-28T08:25:54.486Z,856.09
2018-11-28T08:26:54.457Z,856.12
2018-11-28T08:27:54.451Z,856.17
2018-11-28T08:28:54.425Z,856.17
2018-11-28T08:29:54.450Z,856.17
2018-11-28T08:30:54.422Z,856.16
2018-11-28T08:31:54.402Z,856.20
2018-11-28T08:32:54.381Z,856.21
2018-11-28T08:33:54.382Z,856.22
2018-11-28T08:34:54.406Z,856.26
2018-11-28T08:35:54.387Z,856.27
2018-11-28T08:36:54.339Z,856.26
2018-11-28T08:37:54.339Z,856.26
2018-11-28T08:38:54.352Z,856.28
2018-11-28T08:39:54.303Z,856.28
2018-11-28T08:40:54.312Z,856.23
2018-11-28T08:41:54.283Z,856.21
2018-11-28T08:42:54.280Z,856.18
2018-11-28T08:43:54.303Z,856.18
2018-11-28T08:44:54.346Z,856.17
2018-11-28T08:45:54.250Z,856.20
2018-11-28T08:46:54.247Z,856.23
2018-11-28T08:47:54.217Z,856.20
2018-11-28T08:48:54.239Z,856.20
2018-11-28T08:49:54.227Z,856.18
2018-11-28T08:50:54.185Z,856.19
2018-11-28T08:51:54.176Z,856.20
2018-11-28T08:52:54.168Z,856.25
2018-11-28T08:53:54.221Z,856.26
2018-11-28T08:54:54.206Z,856.27
2018-11-28T08:55:54.141Z,856.30
2018-11-28T08:56:54.167Z,856.27
2018-11-28T08:57:54.112Z,856.29
2018-11-28T08:58:54.099Z,856.27
2018-11-28T08:59:54.092Z,856.24
2018-11-28T09:00:54.085Z,856.30
2018-11-28T09:01:54.105Z,856.29
2018-11-28T09:02:54.066Z,856.34
2018-11-28T09:03:54.048Z,856.27
2018-11-28T09:04:54.038Z,856.26
2018-11-28T09:05:54.029Z,856.30
2018-11-28T09:06:54.032Z,856.25
2018-11-28T09:07:54.013Z,856.26
2018-11-28T09:08:53.999Z,856.30
2018-11-28T09:09:53.979Z,856.33
2018-11-28T09:10:53.976Z,856.27
2018-11-28T09:11:53.962Z,856.33
2018-11-28T09:12:54.009Z,856.31
2018-11-28T09:13:53.949Z,856.27
2018-11-28T09:14:53.929Z,856.35
2018-11-28T09:15:53.921Z,856.35
2018-11-28T09:16:53.910Z,856.37
2018-11-28T09:17:53.941Z,856.33
2018-11-28T09:18:53.903Z,856.37
2018-11-28T09:19:53.880Z,856.36
2018-11-28T09:20:53.879Z,856.34
2018-11-28T09:21:53.860Z,856.39
2018-11-28T09:22:53.950Z,856.38
2018-11-28T09:23:53.882Z,856.38
2018-11-28T09:24:53.833Z,856.43
2018-11-28T09:25:53.826Z,856.41
2018-11-28T09:26:53.818Z,856.39
2018-11-28T09:27:53.795Z,856.41
2018-11-28T09:28:53.834Z,856.42
2018-11-28T09:29:53.775Z,856.46
2018-11-28T09:30:53.782Z,856.43
2018-11-28T09:31:53.765Z,856.47
2018-11-28T09:32:53.741Z,856.51
2018-11-28T09:33:53.767Z,856.51
2018-11-28T09:34:53.719Z,856.52
2018-11-28T09:35:53.709Z,856.57
2018-11-28T09:36:53.710Z,856.56
2018-11-28T09:37:53.726Z,856.59
2018-11-28T09:38:53.717Z,856.58
2018-11-28T09:39:53.669Z,856.59
2018-11-28T09:40:53.656Z,856.59
2018-11-28T09:41:53.650Z,856.58
2018-11-28T09:42:53.635Z,856.57
2018-11-28T09:43:53.666Z,856.56
2018-11-28T09:44:53.633Z,856.57
2018-11-28T09:45:53.666Z,856.55
2018-11-28T09:46:53.758Z,856.60
2018-11-28T09:47:53.582Z,856.58
2018-11-28T09:48:53.570Z,856.59
2018-11-28T09:49:53.560Z,856.56
2018-11-28T09:50:53.601Z,856.62
2018-11-28T09:51:53.577Z,856.56
2018-11-28T09:52:53.523Z,856.64
2018-11-28T09:53:53.511Z,856.63
2018-11-28T09:54:53.542Z,856.62
2018-11-28T09:55:53.509Z,856.62
2018-11-28T09:56:53.501Z,856.59
2018-11-28T09:57:53.546Z,856.53
2018-11-28T09:58:53.519Z,856.63
2018-11-28T09:59:53.450Z,856.59
2018-11-28T10:00:53.446Z,856.62
2018-11-28T10:01:53.431Z,856.59
2018-11-28T10:02:53.476Z,856.56
2018-11-28T10:03:53.401Z,856.57
2018-11-28T10:04:53.405Z,856.57
2018-11-28T10:05:53.396Z,856.58
2018-11-28T10:06:53.377Z,856.62
2018-11-28T10:07:53.401Z,856.58
2018-11-28T10:08:53.407Z,856.55
2018-11-28T10:09:53.346Z,856.53
2018-11-28T10:10:53.380Z,856.49
2018-11-28T10:11:53.325Z,856.51
2018-11-28T10:12:53.316Z,856.51
2018-11-28T10:13:53.305Z,856.50
2018-11-28T10:14:53.298Z,856.47
2018-11-28T10:15:53.332Z,856.50
2018-11-28T10:16:53.655Z,856.50
2018-11-28T10:17:53.261Z,856.45
2018-11-28T10:18:53.297Z,856.45
2018-11-28T10:19:53.239Z,856.46
2018-11-28T10:20:53.238Z,856.43
2018-11-28T10:21:53.215Z,856.43
2018-11-28T10:22:53.207Z,856.42
2018-11-28T10:23:53.246Z,856.45
2018-11-28T10:24:53.191Z,856.42
2018-11-28T10:25:53.180Z,856.41
2018-11-28T10:26:53.161Z,856.40
2018-11-28T10:27:53.153Z,856.41
2018-11-28T10:28:53.181Z,856.40
2018-11-28T10:29:53.151Z,856.38
2018-11-28T10:30:53.128Z,856.38
2018-11-28T10:31:53.103Z,856.34
2018-11-28T10:32:53.114Z,856.37
2018-11-28T10:33:53.145Z,856.45
2018-11-28T10:34:53.084Z,856.43
2018-11-28T10:35:53.079Z,856.46
2018-11-28T10:36:53.067Z,856.43
2018-11-28T10:37:53.042Z,856.43
2018-11-28T10:38:53.041Z,856.42
2018-11-28T10:39:53.220Z,856.41
2018-11-28T10:40:53.025Z,856.41
2018-11-28T10:41:52.995Z,856.44
2018-11-28T10:42:53.078Z,856.42
2018-11-28T10:43:53.015Z,856.42
2018-11-28T10:44:53.002Z,856.41
2018-11-28T10:45:52.958Z,856.40
2018-11-28T10:46:52.979Z,856.43
2018-11-28T10:47:52.943Z,856.38
2018-11-28T10:48:53.022Z,856.43
2018-11-28T10:49:52.922Z,856.44
2018-11-28T10:50:52.907Z,856.49
2018-11-28T10:51:52.895Z,856.45
2018-11-28T10:52:52.893Z,856.41
2018-11-28T10:53:53.682Z,856.41
2018-11-28T10:54:52.909Z,856.38
2018-11-28T10:55:52.865Z,856.38
2018-11-28T10:56:53.842Z,856.36
2018-11-28T10:57:52.853Z,856.34
2018-11-28T10:58:52.830Z,856.32
2018-11-28T11:00:01.571Z,856.31
2018-11-28T11:00:52.796Z,856.26
2018-11-28T11:01:52.789Z,856.30
2018-11-28T11:02:52.784Z,856.29
2018-11-28T11:03:52.760Z,856.33
2018-11-28T11:04:52.763Z,856.27
2018-11-28T11:05:52.796Z,856.31
2018-11-28T11:06:52.742Z,856.29
2018-11-28T11:07:52.728Z,856.27
2018-11-28T11:08:52.723Z,856.27
2018-11-28T11:09:52.717Z,856.27
2018-11-28T11:10:52.729Z,856.27
2018-11-28T11:11:52.718Z,856.23
2018-11-28T11:12:52.657Z,856.21
2018-11-28T11:13:53.679Z,856.30
2018-11-28T11:14:52.656Z,856.26
2018-11-28T11:15:52.636Z,856.23
2018-11-28T11:16:52.682Z,856.22
2018-11-28T11:17:52.622Z,856.25
2018-11-28T11:18:52.604Z,856.27
2018-11-28T11:19:52.608Z,856.29
2018-11-28T11:20:52.609Z,856.29
2018-11-28T11:21:52.605Z,856.30
2018-11-28T11:22:52.569Z,856.26
2018-11-28T11:23:52.556Z,856.27
2018-11-28T11:24:52.543Z,856.30
2018-11-28T11:25:52.593Z,856.31
2018-11-28T11:26:52.552Z,856.27
2018-11-28T11:27:53.534Z,856.27
2018-11-28T11:28:52.516Z,856.22
2018-11-28T11:29:53.556Z,856.21
2018-11-28T11:30:52.481Z,856.22
2018-11-28T11:31:52.634Z,856.20
2018-11-28T11:32:54.493Z,856.26
2018-11-28T11:33:52.497Z,856.24
2018-11-28T11:35:03.917Z,856.24
2018-11-28T11:36:01.972Z,856.28
2018-11-28T11:37:03.506Z,856.25
2018-11-28T11:37:54.463Z,856.24
2018-11-28T11:39:01.580Z,856.27
2018-11-28T11:40:10.548Z,856.27
2018-11-28T11:41:01.291Z,856.30
2018-11-28T11:42:15.179Z,856.31
2018-11-28T11:43:01.530Z,856.29
2018-11-28T11:44:01.809Z,856.29
2018-11-28T11:45:00.723Z,856.27
2018-11-28T11:46:02.405Z,856.25
2018-11-28T11:46:53.252Z,856.27
2018-11-28T11:47:52.306Z,856.27
2018-11-28T11:48:52.282Z,856.20
2018-11-28T11:50:00.935Z,856.23
2018-11-28T11:50:54.309Z,856.20
2018-11-28T11:51:52.279Z,856.19
2018-11-28T11:52:52.244Z,856.14
2018-11-28T11:53:53.221Z,856.12
2018-11-28T11:54:52.305Z,856.16
2018-11-28T11:55:52.208Z,856.16
2018-11-28T11:56:52.243Z,856.17
2018-11-28T11:57:53.460Z,856.13
2018-11-28T11:58:52.228Z,856.16
2018-11-28T11:59:52.153Z,856.11
2018-11-28T12:00:52.151Z,856.10
2018-11-28T12:01:54.823Z,856.12
2018-11-28T12:02:52.138Z,856.15
2018-11-28T12:03:52.157Z,856.16
2018-11-28T12:04:52.112Z,856.16
2018-11-28T12:05:52.087Z,856.16
2018-11-28T12:06:52.102Z,856.12
2018-11-28T12:07:52.110Z,856.11
2018-11-28T12:08:52.120Z,856.14
2018-11-28T12:09:52.134Z,856.15
2018-11-28T12:10:52.036Z,856.17
2018-11-28T12:11:52.039Z,856.16
2018-11-28T12:12:52.009Z,856.16
2018-11-28T12:13:52.290Z,856.16
2018-11-28T12:14:52.125Z,856.14
2018-11-28T12:15:52.112Z,856.15
2018-11-28T12:16:52.150Z,856.16
2018-11-28T12:17:52.116Z,856.12
2018-11-28T12:18:52.217Z,856.13
2018-11-28T12:19:52.115Z,856.11
2018-11-28T12:20:52.064Z,856.07
2018-11-28T12:21:53.511Z,856.12
2018-11-28T12:22:52.916Z,856.07
2018-11-28T12:23:52.052Z,856.09
2018-11-28T12:24:52.024Z,856.08
2018-11-28T12:25:52.072Z,856.08
2018-11-28T12:26:52.062Z,856.02
2018-11-28T12:27:52.087Z,856.05
2018-11-28T12:28:53.122Z,856.07